createdAt,value
2018-07-21T00:00:50.925Z,8.40
2018-07-21T00:02:11.427Z,7.50
2018-07-21T00:03:12.531Z,7.90
2018-07-21T00:04:12.483Z,7.60
2018-07-21T00:05:12.710Z,7.70
2018-07-21T00:06:12.948Z,7.40
2018-07-21T00:07:12.086Z,8.50
2018-07-21T00:08:11.878Z,7.90
2018-07-21T00:10:13.720Z,7.50
2018-07-21T00:11:35.219Z,8.10
2018-07-21T00:12:35.300Z,7.70
2018-07-21T00:13:35.092Z,7.80
2018-07-21T00:14:38.697Z,8.10
2018-07-21T00:15:35.699Z,7.80
2018-07-21T00:17:06.483Z,7.30
2018-07-21T00:18:05.245Z,7.90
2018-07-21T00:19:05.104Z,7.50
2018-07-21T00:20:05.752Z,7.70
2018-07-21T00:21:05.464Z,7.80
2018-07-21T00:22:05.258Z,8.50
2018-07-21T00:23:04.986Z,7.50
2018-07-21T00:24:26.097Z,7.50
2018-07-21T00:25:26.877Z,7.80
2018-07-21T00:26:26.793Z,7.80
2018-07-21T00:27:26.530Z,7.90
2018-07-21T00:28:26.174Z,8.00
2018-07-21T00:29:26.812Z,8.00
2018-07-21T00:30:26.638Z,7.60
2018-07-21T00:31:26.306Z,7.60
2018-07-21T00:32:27.005Z,8.10
2018-07-21T00:33:27.010Z,7.80
2018-07-21T00:34:27.889Z,8.00
2018-07-21T00:35:27.059Z,7.70
2018-07-21T00:36:26.822Z,8.10
2018-07-21T00:37:47.454Z,7.90
2018-07-21T00:38:48.271Z,7.50
2018-07-21T00:39:48.014Z,7.90
2018-07-21T00:40:47.620Z,7.90
2018-07-21T00:41:48.680Z,7.60
2018-07-21T00:42:47.815Z,7.40
2018-07-21T00:43:48.401Z,7.70
2018-07-21T00:44:48.565Z,7.50
2018-07-21T00:45:48.533Z,7.70
2018-07-21T00:46:48.601Z,7.60
2018-07-21T00:47:48.799Z,8.10
2018-07-21T00:48:47.879Z,8.00
2018-07-21T00:49:48.012Z,7.50
2018-07-21T00:50:48.255Z,7.60
2018-07-21T00:51:47.781Z,6.90
2018-07-21T00:52:48.756Z,8.00
2018-07-21T00:53:47.416Z,8.20
2018-07-21T00:54:48.217Z,8.10
2018-07-21T00:56:29.800Z,7.40
2018-07-21T00:58:13.112Z,8.00
2018-07-21T00:59:55.582Z,7.50
2018-07-21T01:00:54.789Z,7.70
2018-07-21T01:01:55.207Z,8.00
2018-07-21T01:02:54.904Z,7.80
2018-07-21T01:04:15.262Z,7.00
2018-07-21T01:05:16.148Z,6.60
2018-07-21T01:06:16.041Z,7.50
2018-07-21T01:07:15.962Z,6.90
2018-07-21T01:08:15.637Z,7.30
2018-07-21T01:09:15.475Z,8.00
2018-07-21T01:10:36.308Z,7.60
2018-07-21T01:11:37.725Z,7.50
2018-07-21T01:12:37.192Z,7.40
2018-07-21T01:13:37.459Z,7.10
2018-07-21T01:14:37.592Z,7.10
2018-07-21T01:15:37.228Z,7.10
2018-07-21T01:16:37.309Z,7.20
2018-07-21T01:17:37.350Z,7.00
2018-07-21T01:18:37.469Z,6.60
2018-07-21T01:19:37.146Z,7.60
2018-07-21T01:20:37.152Z,7.40
2018-07-21T01:21:57.880Z,6.70
2018-07-21T01:22:57.885Z,7.20
2018-07-21T01:23:57.568Z,7.20
2018-07-21T01:24:58.584Z,6.80
2018-07-21T01:25:58.365Z,7.00
2018-07-21T01:26:58.368Z,6.50
2018-07-21T01:28:18.716Z,6.40
2018-07-21T01:29:19.771Z,6.90
2018-07-21T01:30:19.847Z,6.80
2018-07-21T01:31:19.047Z,6.10
2018-07-21T01:32:40.024Z,7.50
2018-07-21T01:33:39.559Z,6.50
2018-07-21T01:34:40.643Z,6.60
2018-07-21T01:35:40.294Z,7.60
2018-07-21T01:36:40.094Z,6.90
2018-07-21T01:37:39.886Z,6.60
2018-07-21T01:38:40.781Z,6.80
2018-07-21T01:39:40.904Z,6.70
2018-07-21T01:40:40.823Z,7.30
2018-07-21T01:42:01.022Z,6.80
2018-07-21T01:43:02.064Z,7.10
2018-07-21T01:44:01.009Z,6.60
2018-07-21T01:45:01.628Z,6.50
2018-07-21T01:46:01.791Z,6.50
2018-07-21T01:47:01.489Z,6.80
2018-07-21T01:48:01.676Z,7.00
2018-07-21T01:49:01.726Z,6.80
2018-07-21T01:50:01.457Z,6.90
2018-07-21T01:51:01.734Z,7.10
2018-07-21T01:52:01.717Z,6.80
2018-07-21T01:53:01.933Z,6.70
2018-07-21T01:54:22.883Z,6.60
2018-07-21T01:55:22.745Z,6.60
2018-07-21T01:56:23.277Z,7.30
2018-07-21T01:57:23.366Z,6.90
2018-07-21T01:58:23.394Z,7.50
2018-07-21T01:59:23.331Z,7.00
2018-07-21T02:00:23.316Z,6.80
2018-07-21T02:01:22.955Z,6.90
2018-07-21T02:02:22.986Z,7.10
2018-07-21T02:03:23.232Z,6.80
2018-07-21T02:04:28.029Z,7.10
2018-07-21T02:05:23.185Z,7.10
2018-07-21T02:06:44.229Z,7.10
2018-07-21T02:07:44.052Z,6.80
2018-07-21T02:08:44.719Z,6.80
2018-07-21T02:09:44.787Z,6.60
2018-07-21T02:11:05.092Z,6.80
2018-07-21T02:12:06.049Z,6.80
2018-07-21T02:13:05.902Z,7.00
2018-07-21T02:14:26.758Z,7.60
2018-07-21T02:15:47.932Z,8.00
2018-07-21T02:16:48.135Z,8.30
2018-07-21T02:17:47.817Z,7.80
2018-07-21T02:18:47.557Z,9.30
2018-07-21T02:19:48.685Z,10.00
2018-07-21T02:20:52.016Z,9.50
2018-07-21T02:21:48.093Z,24.50
2018-07-21T02:22:48.230Z,22.20
2018-07-21T02:23:48.162Z,32.50
2018-07-21T02:24:48.151Z,20.90
2018-07-21T02:25:48.241Z,11.80
2018-07-21T02:26:47.915Z,12.90
2018-07-21T02:27:48.007Z,14.00
2018-07-21T02:28:47.860Z,13.30
2018-07-21T02:29:47.600Z,14.30
2018-07-21T02:30:48.741Z,14.80
2018-07-21T02:31:48.719Z,15.80
2018-07-21T02:32:47.677Z,15.50
2018-07-21T02:33:48.897Z,17.00
2018-07-21T02:34:47.740Z,17.20
2018-07-21T02:35:48.835Z,16.10
2018-07-21T02:36:47.760Z,16.30
2018-07-21T02:37:47.951Z,18.80
2018-07-21T02:38:48.208Z,19.70
2018-07-21T02:39:48.261Z,16.80
2018-07-21T02:40:48.520Z,18.10
2018-07-21T02:41:48.658Z,21.70
2018-07-21T02:42:48.363Z,22.20
2018-07-21T02:43:48.059Z,21.50
2018-07-21T02:45:29.261Z,19.50
2018-07-21T02:46:30.435Z,21.20
2018-07-21T02:47:30.305Z,20.10
2018-07-21T02:48:30.130Z,21.70
2018-07-21T02:49:30.369Z,22.60
2018-07-21T02:50:29.652Z,22.80
2018-07-21T02:51:29.841Z,21.10
2018-07-21T02:52:30.000Z,21.50
2018-07-21T02:53:30.288Z,26.00
2018-07-21T02:54:30.387Z,23.20
2018-07-21T02:55:30.298Z,23.00
2018-07-21T02:56:30.415Z,24.10
2018-07-21T02:57:30.524Z,22.90
2018-07-21T02:58:29.405Z,23.40
2018-07-21T02:59:30.444Z,27.60
2018-07-21T03:00:29.383Z,25.90
2018-07-21T03:01:30.242Z,24.60
2018-07-21T03:02:29.928Z,29.00
2018-07-21T03:03:29.813Z,27.70
2018-07-21T03:08:39.309Z,30.00
2018-07-21T03:09:38.860Z,32.00
2018-07-21T03:10:39.559Z,29.60
2018-07-21T03:11:39.373Z,28.20
2018-07-21T03:12:39.305Z,27.60
2018-07-21T03:13:39.425Z,29.00
2018-07-21T03:14:39.221Z,26.90
2018-07-21T03:15:38.961Z,25.50
2018-07-21T03:16:39.839Z,24.40
2018-07-21T03:17:39.916Z,22.90
2018-07-21T03:18:40.864Z,23.80
2018-07-21T03:19:39.972Z,23.70
2018-07-21T03:20:43.559Z,27.20
2018-07-21T03:21:59.792Z,24.50
2018-07-21T03:23:00.787Z,24.50
2018-07-21T03:24:00.939Z,25.00
2018-07-21T03:25:03.617Z,23.50
2018-07-21T03:26:00.394Z,23.60
2018-07-21T03:27:00.076Z,20.30
2018-07-21T03:28:00.579Z,21.00
2018-07-21T03:29:00.532Z,23.70
2018-07-21T03:30:00.505Z,22.10
2018-07-21T03:31:00.584Z,22.30
2018-07-21T03:32:00.945Z,22.30
2018-07-21T03:33:23.933Z,24.30
2018-07-21T03:34:22.111Z,23.70
2018-07-21T03:35:22.025Z,24.00
2018-07-21T03:36:21.888Z,22.40
2018-07-21T03:37:22.003Z,23.40
2018-07-21T03:38:21.640Z,25.50
2018-07-21T03:39:22.299Z,21.70
2018-07-21T03:40:22.390Z,21.20
2018-07-21T03:41:22.011Z,23.30
2018-07-21T03:42:23.780Z,23.80
2018-07-21T03:43:21.931Z,22.90
2018-07-21T03:44:22.238Z,21.00
2018-07-21T03:45:22.869Z,23.40
2018-07-21T03:46:22.617Z,23.20
2018-07-21T03:47:21.967Z,21.80
2018-07-21T03:48:21.799Z,21.20
2018-07-21T03:49:22.441Z,19.90
2018-07-21T03:50:21.457Z,18.40
2018-07-21T03:51:21.693Z,19.20
2018-07-21T03:52:22.530Z,21.10
2018-07-21T03:53:42.349Z,19.40
2018-07-21T03:54:43.802Z,17.20
2018-07-21T03:55:43.779Z,18.20
2018-07-21T03:56:43.042Z,19.10
2018-07-21T03:57:42.784Z,20.20
2018-07-21T03:58:42.396Z,19.40
2018-07-21T03:59:42.512Z,21.50
2018-07-21T04:00:44.297Z,20.50
2018-07-21T04:01:43.139Z,19.70
2018-07-21T04:02:42.958Z,18.40
2018-07-21T04:04:05.106Z,18.30
2018-07-21T04:05:06.196Z,18.30
2018-07-21T04:06:06.071Z,18.60
2018-07-21T04:07:03.624Z,19.10
2018-07-21T04:08:04.386Z,19.70
2018-07-21T04:09:04.151Z,19.40
2018-07-21T04:10:04.436Z,20.50
2018-07-21T04:11:04.189Z,19.30
2018-07-21T04:12:24.725Z,19.30
2018-07-21T04:13:24.783Z,18.80
2018-07-21T04:14:24.579Z,18.40
2018-07-21T04:15:24.779Z,18.50
2018-07-21T04:16:24.727Z,18.30
2018-07-21T04:17:45.720Z,19.20
2018-07-21T04:18:45.608Z,19.80
2018-07-21T04:19:46.150Z,18.90
2018-07-21T04:20:45.947Z,20.20
2018-07-21T04:21:45.882Z,20.60
2018-07-21T04:22:45.618Z,21.50
2018-07-21T04:23:46.264Z,20.60
2018-07-21T04:25:27.327Z,19.20
2018-07-21T04:26:27.039Z,20.10
2018-07-21T04:27:28.929Z,19.50
2018-07-21T04:28:27.958Z,19.10
2018-07-21T04:29:27.449Z,20.90
2018-07-21T04:30:27.046Z,20.40
2018-07-21T04:31:28.049Z,18.00
2018-07-21T04:32:27.831Z,17.10
2018-07-21T04:33:48.227Z,15.70
2018-07-21T04:34:48.826Z,15.40
2018-07-21T04:35:49.039Z,16.40
2018-07-21T04:36:48.789Z,16.20
2018-07-21T04:38:09.754Z,16.30
2018-07-21T04:39:09.814Z,14.80
2018-07-21T04:40:10.052Z,16.10
2018-07-21T04:41:30.528Z,15.70
2018-07-21T04:42:30.361Z,13.80
2018-07-21T04:43:31.376Z,14.70
2018-07-21T04:44:51.347Z,13.80
2018-07-21T04:45:52.065Z,14.70
2018-07-21T04:46:51.980Z,14.00
2018-07-21T04:47:52.245Z,14.50
2018-07-21T04:48:51.858Z,13.20
2018-07-21T04:50:12.578Z,13.70
2018-07-21T04:51:33.264Z,14.00
2018-07-21T04:52:34.276Z,13.90
2018-07-21T04:53:33.918Z,13.50
2018-07-21T04:54:33.489Z,15.00
2018-07-21T04:55:33.468Z,13.50
2018-07-21T04:56:54.936Z,13.40
2018-07-21T04:57:55.005Z,12.70
2018-07-21T04:58:55.104Z,11.40
2018-07-21T04:59:54.980Z,12.20
2018-07-21T05:00:54.737Z,12.20
2018-07-21T05:01:55.600Z,11.70
2018-07-21T05:02:55.704Z,12.40
2018-07-21T05:03:54.621Z,12.40
2018-07-21T05:04:55.334Z,12.10
2018-07-21T05:05:55.473Z,12.80
2018-07-21T05:06:55.670Z,11.40
2018-07-21T05:08:08.974Z,11.60
2018-07-21T05:08:55.358Z,11.40
2018-07-21T05:09:55.174Z,11.00
2018-07-21T05:11:15.471Z,10.80
2018-07-21T05:12:16.650Z,10.70
2018-07-21T05:13:15.556Z,9.50
2018-07-21T05:14:16.412Z,10.10
2018-07-21T05:14:57.688Z,9.90
2018-07-21T05:15:59.310Z,10.50
2018-07-21T05:16:58.298Z,10.60
2018-07-21T05:17:58.297Z,9.60
2018-07-21T05:18:58.543Z,9.40
2018-07-21T05:19:58.719Z,9.80
2018-07-21T05:20:57.962Z,9.70
2018-07-21T05:21:58.227Z,10.10
2018-07-21T05:22:58.436Z,10.10
2018-07-21T05:23:58.450Z,9.80
2018-07-21T05:24:58.412Z,9.70
2018-07-21T05:25:58.285Z,10.70
2018-07-21T05:26:58.242Z,10.90
2018-07-21T05:27:58.511Z,10.50
2018-07-21T05:28:58.210Z,9.10
2018-07-21T05:29:58.149Z,9.50
2018-07-21T05:30:58.237Z,10.00
2018-07-21T05:32:39.851Z,10.30
2018-07-21T05:33:41.064Z,10.30
2018-07-21T05:34:39.897Z,10.50
2018-07-21T05:35:41.051Z,10.60
2018-07-21T05:36:39.904Z,10.80
2018-07-21T05:38:23.058Z,10.50
2018-07-21T05:39:24.082Z,10.80
2018-07-21T05:40:45.220Z,10.00
2018-07-21T05:41:45.387Z,10.70
2018-07-21T05:42:46.361Z,10.80
2018-07-21T05:43:45.210Z,10.00
2018-07-21T05:44:45.422Z,10.90
2018-07-21T05:46:27.066Z,9.90
2018-07-21T05:47:26.773Z,10.20
2018-07-21T05:48:48.202Z,10.30
2018-07-21T05:49:49.142Z,10.50
2018-07-21T05:50:49.317Z,9.90
2018-07-21T05:51:49.030Z,10.30
2018-07-21T05:52:48.799Z,10.30
2018-07-21T05:53:48.459Z,10.00
2018-07-21T05:54:49.496Z,10.10
2018-07-21T05:55:51.684Z,10.50
2018-07-21T05:56:48.754Z,10.20
2018-07-21T05:57:48.706Z,10.10
2018-07-21T05:58:48.592Z,9.30
2018-07-21T06:00:29.917Z,9.20
2018-07-21T06:01:30.880Z,9.70
2018-07-21T06:02:52.025Z,8.80
2018-07-21T06:03:52.053Z,9.20
2018-07-21T06:04:52.373Z,9.90
2018-07-21T06:05:52.521Z,9.90
2018-07-21T06:07:12.895Z,9.40
2018-07-21T06:08:35.061Z,9.10
2018-07-21T06:09:56.089Z,9.10
2018-07-21T06:10:56.081Z,9.60
2018-07-21T06:11:56.809Z,8.90
2018-07-21T06:12:57.642Z,8.50
2018-07-21T06:13:56.611Z,8.80
2018-07-21T06:14:56.904Z,8.70
2018-07-21T06:15:55.834Z,9.70
2018-07-21T06:16:58.093Z,9.60
2018-07-21T06:18:16.763Z,9.00
2018-07-21T06:19:16.624Z,9.60
2018-07-21T06:20:28.433Z,9.30
2018-07-21T06:21:17.303Z,8.80
2018-07-21T06:22:20.402Z,8.80
2018-07-21T06:23:18.411Z,8.60
2018-07-21T06:24:19.410Z,9.70
2018-07-21T06:25:40.105Z,8.70
2018-07-21T06:26:39.110Z,10.20
2018-07-21T06:28:43.329Z,9.30
2018-07-21T06:29:43.270Z,8.90
2018-07-21T06:30:43.187Z,9.10
2018-07-21T06:31:43.520Z,9.20
2018-07-21T06:32:43.798Z,8.60
2018-07-21T06:33:43.955Z,8.50
2018-07-21T06:34:45.131Z,8.40
2018-07-21T06:35:44.201Z,8.00
2018-07-21T06:36:43.377Z,8.40
2018-07-21T06:37:43.210Z,7.50
2018-07-21T06:38:42.995Z,7.70
2018-07-21T06:39:45.756Z,7.90
2018-07-21T06:40:45.447Z,8.00
2018-07-21T06:41:43.139Z,7.50
2018-07-21T06:42:44.900Z,7.30
2018-07-21T06:43:44.055Z,8.00
2018-07-21T06:44:43.070Z,8.00
2018-07-21T06:45:44.173Z,8.30
2018-07-21T06:46:43.405Z,8.10
2018-07-21T06:47:43.469Z,8.50
2018-07-21T06:48:43.454Z,9.00
2018-07-21T06:49:45.936Z,9.50
2018-07-21T06:50:43.798Z,9.20
2018-07-21T06:51:43.533Z,8.80
2018-07-21T06:52:43.898Z,8.70
2018-07-21T06:53:44.491Z,8.70
2018-07-21T06:54:43.910Z,9.40
2018-07-21T06:55:44.277Z,8.30
2018-07-21T06:56:43.367Z,8.30
2018-07-21T06:58:04.500Z,8.00
2018-07-21T06:59:05.276Z,7.70
2018-07-21T07:00:05.561Z,7.60
2018-07-21T07:01:04.922Z,8.00
2018-07-21T07:02:04.733Z,9.00
2018-07-21T07:03:05.032Z,8.60
2018-07-21T07:04:05.026Z,8.30
2018-07-21T07:05:04.839Z,7.90
2018-07-21T07:06:05.138Z,8.00
2018-07-21T07:07:26.547Z,7.60
2018-07-21T07:08:26.699Z,8.20
2018-07-21T07:09:26.629Z,7.50
2018-07-21T07:10:26.832Z,7.10
2018-07-21T07:11:48.360Z,7.20
2018-07-21T07:12:48.890Z,8.30
2018-07-21T07:13:48.077Z,8.30
2018-07-21T07:14:48.474Z,7.70
2018-07-21T07:15:48.712Z,7.30
2018-07-21T07:16:47.783Z,7.20
2018-07-21T07:17:47.668Z,7.60
2018-07-21T07:18:48.839Z,7.60
2018-07-21T07:19:47.828Z,7.00
2018-07-21T07:20:48.059Z,6.10
2018-07-21T07:21:48.429Z,6.80
2018-07-21T07:23:09.428Z,6.80
2018-07-21T07:24:10.676Z,6.80
2018-07-21T07:25:09.648Z,6.80
2018-07-21T07:26:09.641Z,6.80
2018-07-21T07:27:31.162Z,7.00
2018-07-21T07:28:31.448Z,7.20
2018-07-21T07:29:52.475Z,7.00
2018-07-21T07:31:16.580Z,6.70
2018-07-21T07:32:16.007Z,6.80
2018-07-21T07:33:15.912Z,6.70
2018-07-21T07:34:15.860Z,7.50
2018-07-21T07:35:15.880Z,6.70
2018-07-21T07:36:15.742Z,7.00
2018-07-21T07:37:16.731Z,6.70
2018-07-21T07:38:15.990Z,7.00
2018-07-21T07:39:15.872Z,7.10
2018-07-21T07:40:15.732Z,6.70
2018-07-21T07:41:16.030Z,6.60
2018-07-21T07:42:16.415Z,6.70
2018-07-21T07:43:16.354Z,6.50
2018-07-21T07:44:16.366Z,6.60
2018-07-21T07:45:16.182Z,7.50
2018-07-21T07:46:16.681Z,6.90
2018-07-21T07:47:16.088Z,6.50
2018-07-21T07:48:16.574Z,6.80
2018-07-21T07:49:16.936Z,6.70
2018-07-21T07:50:15.804Z,7.00
2018-07-21T07:51:16.694Z,6.70
2018-07-21T07:52:15.946Z,6.60
2018-07-21T07:53:15.822Z,6.70
2018-07-21T07:54:16.599Z,7.40
2018-07-21T07:55:15.634Z,6.20
2018-07-21T07:56:15.687Z,6.90
2018-07-21T07:57:16.969Z,6.40
2018-07-21T07:58:16.796Z,8.20
2018-07-21T07:59:16.115Z,7.40
2018-07-21T08:00:16.591Z,6.70
2018-07-21T08:01:15.995Z,6.90
2018-07-21T08:02:16.210Z,7.00
2018-07-21T08:03:17.058Z,7.50
2018-07-21T08:04:16.379Z,7.10
2018-07-21T08:05:16.581Z,6.50
2018-07-21T08:06:15.696Z,7.50
2018-07-21T08:07:37.351Z,7.70
2018-07-21T08:08:38.352Z,7.30
2018-07-21T08:09:38.626Z,6.80
2018-07-21T08:10:37.858Z,6.50
2018-07-21T08:11:37.695Z,7.00
2018-07-21T08:12:37.625Z,6.90
2018-07-21T08:13:37.518Z,6.60
2018-07-21T08:15:19.289Z,6.70
2018-07-21T08:16:19.486Z,6.90
2018-07-21T08:17:40.486Z,6.80
2018-07-21T08:18:41.774Z,7.70
2018-07-21T08:19:40.906Z,7.20
2018-07-21T08:20:41.005Z,6.40
2018-07-21T08:21:41.418Z,6.10
2018-07-21T08:23:23.575Z,6.40
2018-07-21T08:24:23.816Z,6.90
2018-07-21T08:25:24.105Z,6.90
2018-07-21T08:26:25.057Z,6.60
2018-07-21T08:27:24.227Z,6.10
2018-07-21T08:28:23.687Z,6.20
2018-07-21T08:29:23.517Z,6.90
2018-07-21T08:30:23.867Z,6.50
2018-07-21T08:31:24.054Z,6.80
2018-07-21T08:32:45.403Z,7.00
2018-07-21T08:33:45.664Z,6.40
2018-07-21T08:34:45.501Z,6.30
2018-07-21T08:35:45.747Z,6.50
2018-07-21T08:36:45.828Z,5.70
2018-07-21T08:37:45.699Z,6.50
2018-07-21T08:38:45.432Z,7.10
2018-07-21T08:39:45.811Z,7.10
2018-07-21T08:40:46.063Z,6.80
2018-07-21T08:41:46.361Z,6.10
2018-07-21T08:43:06.828Z,7.10
2018-07-21T08:44:07.068Z,6.10
2018-07-21T08:45:07.340Z,6.50
2018-07-21T08:46:27.438Z,6.30
2018-07-21T08:47:28.746Z,5.90
2018-07-21T08:48:28.600Z,6.00
2018-07-21T08:49:28.828Z,6.80
2018-07-21T08:50:27.609Z,6.30
2018-07-21T08:51:27.981Z,5.90
2018-07-21T08:52:27.916Z,6.60
2018-07-21T08:53:28.034Z,6.10
2018-07-21T08:54:28.250Z,6.50
2018-07-21T08:55:28.547Z,6.30
2018-07-21T08:56:27.828Z,6.20
2018-07-21T08:57:27.593Z,6.20
2018-07-21T08:58:27.416Z,6.90
2018-07-21T08:59:28.788Z,6.10
2018-07-21T09:00:27.754Z,6.40
2018-07-21T09:01:28.853Z,6.70
2018-07-21T09:02:27.905Z,6.20
2018-07-21T09:03:28.240Z,6.60
2018-07-21T09:04:50.571Z,7.00
2018-07-21T09:05:50.904Z,5.90
2018-07-21T09:06:50.339Z,6.70
2018-07-21T09:07:51.081Z,5.90
2018-07-21T09:08:51.440Z,5.90
2018-07-21T09:10:11.036Z,6.40
2018-07-21T09:11:11.373Z,6.50
2018-07-21T09:12:11.311Z,6.60
2018-07-21T09:13:11.511Z,6.80
2018-07-21T09:14:11.440Z,6.40
2018-07-21T09:15:14.194Z,6.80
2018-07-21T09:16:31.834Z,6.90
2018-07-21T09:17:32.802Z,7.60
2018-07-21T09:18:33.906Z,6.50
2018-07-21T09:19:34.087Z,6.50
2018-07-21T09:20:32.907Z,6.70
2018-07-21T09:21:53.925Z,8.60
2018-07-21T09:22:55.135Z,7.60
2018-07-21T09:23:54.351Z,8.20
2018-07-21T09:24:54.709Z,7.40
2018-07-21T09:25:54.466Z,7.40
2018-07-21T09:26:54.338Z,7.50
2018-07-21T09:28:37.547Z,7.10
2018-07-21T09:29:37.415Z,6.80
2018-07-21T09:30:37.217Z,6.40
2018-07-21T09:31:38.588Z,6.20
2018-07-21T09:32:38.086Z,6.50
2018-07-21T09:33:39.022Z,6.00
2018-07-21T09:34:38.031Z,6.30
2018-07-21T09:35:38.072Z,6.20
2018-07-21T09:36:38.285Z,7.00
2018-07-21T09:37:57.850Z,6.70
2018-07-21T09:38:58.729Z,7.30
2018-07-21T09:39:58.743Z,6.60
2018-07-21T09:40:59.024Z,6.30
2018-07-21T09:41:57.869Z,6.80
2018-07-21T09:42:59.120Z,7.30
2018-07-21T09:43:58.163Z,6.10
2018-07-21T09:44:58.268Z,6.50
2018-07-21T09:46:02.938Z,6.80
2018-07-21T09:46:59.178Z,7.50
2018-07-21T09:47:58.130Z,7.30
2018-07-21T09:48:58.180Z,6.60
2018-07-21T09:49:58.355Z,7.00
2018-07-21T09:51:30.916Z,6.70
2018-07-21T09:52:18.973Z,6.80
2018-07-21T09:53:16.460Z,7.20
2018-07-21T09:55:11.297Z,7.20
2018-07-21T09:57:15.804Z,6.50
2018-07-21T09:58:12.650Z,7.00
2018-07-21T09:59:04.674Z,7.10
2018-07-21T10:00:04.457Z,6.90
2018-07-21T10:00:59.449Z,7.40
2018-07-21T10:01:57.345Z,7.00
2018-07-21T10:02:56.990Z,7.50
2018-07-21T10:03:57.188Z,7.40
2018-07-21T10:04:56.147Z,7.30
2018-07-21T10:05:55.149Z,6.80
2018-07-21T10:06:56.418Z,7.30
2018-07-21T10:07:55.384Z,7.60
2018-07-21T10:08:55.214Z,7.30
2018-07-21T10:09:55.255Z,7.20
2018-07-21T10:10:55.523Z,7.70
2018-07-21T10:11:55.573Z,6.80
2018-07-21T10:13:16.824Z,7.40
2018-07-21T10:14:17.269Z,8.00
2018-07-21T10:15:38.811Z,7.30
2018-07-21T10:16:38.757Z,7.90
2018-07-21T10:17:59.964Z,7.60
2018-07-21T10:19:00.257Z,7.40
2018-07-21T10:20:01.354Z,6.80
2018-07-21T10:21:00.315Z,7.20
2018-07-21T10:22:00.935Z,7.70
2018-07-21T10:22:59.758Z,7.70
2018-07-21T10:24:00.164Z,7.60
2018-07-21T10:26:40.682Z,7.90
2018-07-21T10:27:41.648Z,6.90
2018-07-21T10:32:35.539Z,7.10
2018-07-21T10:33:36.982Z,7.40
2018-07-21T10:34:36.002Z,6.90
2018-07-21T10:35:35.740Z,7.50
2018-07-21T10:36:37.498Z,7.80
2018-07-21T10:37:36.125Z,7.20
2018-07-21T10:38:35.967Z,7.70
2018-07-21T10:39:59.309Z,7.10
2018-07-21T10:40:59.840Z,7.10
2018-07-21T10:41:59.550Z,8.30
2018-07-21T10:43:00.501Z,8.30
2018-07-21T10:44:00.514Z,8.00
2018-07-21T10:44:59.964Z,7.50
2018-07-21T10:46:00.814Z,7.80
2018-07-21T10:47:00.061Z,7.70
2018-07-21T10:48:23.667Z,6.90
2018-07-21T10:49:23.673Z,7.30
2018-07-21T10:50:23.964Z,7.50
2018-07-21T10:51:23.614Z,7.40
2018-07-21T10:52:23.359Z,8.10
2018-07-21T10:53:24.586Z,8.10
2018-07-21T10:54:23.834Z,8.10
2018-07-21T10:55:23.874Z,7.80
2018-07-21T10:57:11.161Z,8.00
2018-07-21T10:58:11.808Z,7.70
2018-07-21T10:59:11.505Z,8.70
2018-07-21T11:00:36.012Z,7.90
2018-07-21T11:01:57.764Z,8.20
2018-07-21T11:02:57.630Z,7.90
2018-07-21T11:03:58.947Z,8.40
2018-07-21T11:04:59.327Z,8.40
2018-07-21T11:06:26.390Z,7.90
2018-07-21T11:07:26.228Z,7.50
2018-07-21T11:08:25.727Z,8.30
2018-07-21T11:09:26.376Z,7.70
2018-07-21T11:10:27.395Z,7.70
2018-07-21T11:11:26.327Z,8.30
2018-07-21T11:12:27.672Z,8.40
2018-07-21T11:13:50.124Z,7.40
2018-07-21T11:14:50.779Z,8.00
2018-07-21T11:15:50.436Z,7.40
2018-07-21T11:16:50.636Z,8.20
2018-07-21T11:17:51.619Z,8.10
2018-07-21T11:18:50.871Z,7.80
2018-07-21T11:20:35.887Z,7.90
2018-07-21T11:21:35.666Z,7.40
2018-07-21T11:22:36.624Z,7.90
2018-07-21T11:23:36.638Z,7.80
2018-07-21T11:24:36.179Z,6.90
2018-07-21T11:25:36.159Z,7.70
2018-07-21T11:26:36.531Z,7.70
2018-07-21T11:27:36.754Z,7.60
2018-07-21T11:28:36.136Z,6.90
2018-07-21T11:29:35.903Z,7.10
2018-07-21T11:30:36.480Z,7.60
2018-07-21T11:31:36.235Z,6.80
2018-07-21T11:32:36.817Z,7.60
2018-07-21T11:33:35.692Z,7.50
2018-07-21T11:34:41.359Z,7.20
2018-07-21T11:35:38.055Z,7.70
2018-07-21T11:36:36.801Z,7.60
2018-07-21T11:37:37.391Z,7.50
2018-07-21T11:38:36.672Z,7.90
2018-07-21T11:39:36.759Z,7.70
2018-07-21T11:40:38.373Z,7.20
2018-07-21T11:41:42.597Z,7.80
2018-07-21T11:42:36.035Z,7.70
2018-07-21T11:43:35.965Z,7.20
2018-07-21T11:44:37.165Z,7.20
2018-07-21T11:46:02.393Z,7.20
2018-07-21T11:47:00.524Z,7.50
2018-07-21T11:48:00.522Z,8.00
2018-07-21T11:49:01.688Z,7.90
2018-07-21T11:50:03.154Z,7.50
2018-07-21T11:51:00.569Z,7.30
2018-07-21T11:52:00.052Z,8.00
2018-07-21T11:53:01.179Z,8.80
2018-07-21T11:54:01.079Z,8.50
2018-07-21T11:55:00.112Z,8.20
2018-07-21T11:56:00.125Z,7.70
2018-07-21T11:57:00.305Z,7.30
2018-07-21T11:58:00.962Z,8.40
2018-07-21T11:59:01.167Z,7.90
2018-07-21T12:00:44.752Z,8.40
2018-07-21T12:01:45.213Z,7.90
2018-07-21T12:03:28.886Z,7.30
2018-07-21T12:04:28.745Z,7.40
2018-07-21T12:05:28.620Z,7.60
2018-07-21T12:06:30.115Z,8.60
2018-07-21T12:07:29.566Z,7.80
2018-07-21T12:08:31.117Z,8.90
2018-07-21T12:09:30.643Z,8.40
2018-07-21T12:10:31.323Z,7.90
2018-07-21T13:31:14.779Z,6.40
2018-07-21T13:32:39.967Z,7.50
2018-07-21T13:33:39.415Z,7.00
2018-07-21T13:34:38.896Z,6.00
2018-07-21T13:35:39.333Z,6.10
2018-07-21T13:36:38.745Z,6.60
2018-07-21T13:37:39.021Z,6.20
2018-07-21T13:38:39.345Z,6.20
2018-07-21T13:39:39.564Z,6.00
2018-07-21T13:40:39.041Z,6.30
2018-07-21T13:41:39.607Z,6.20
2018-07-21T13:42:38.942Z,5.90
2018-07-21T13:43:40.223Z,6.00
2018-07-21T13:44:38.694Z,6.30
2018-07-21T13:45:39.216Z,6.20
2018-07-21T13:46:39.383Z,5.90
2018-07-21T13:47:38.862Z,5.60
2018-07-21T13:48:39.327Z,5.80
2018-07-21T13:50:04.109Z,5.10
2018-07-21T13:51:03.564Z,5.80
2018-07-21T13:52:03.037Z,5.40
2018-07-21T13:53:04.722Z,5.90
2018-07-21T13:54:03.253Z,6.00
2018-07-21T13:55:26.881Z,6.10
2018-07-21T13:56:27.969Z,8.30
2018-07-21T13:57:27.445Z,7.10
2018-07-21T13:58:27.580Z,6.10
2018-07-21T13:59:26.929Z,7.30
2018-07-21T14:00:50.464Z,5.50
2018-07-21T14:01:50.982Z,5.70
2018-07-21T14:02:49.376Z,6.20
2018-07-21T14:03:52.013Z,5.90
2018-07-21T14:05:13.487Z,5.70
2018-07-21T14:06:14.055Z,6.20
2018-07-21T14:07:14.579Z,6.20
2018-07-21T14:08:14.065Z,6.30
2018-07-21T14:09:14.453Z,6.40
2018-07-21T14:10:11.842Z,5.70
2018-07-21T14:11:14.211Z,5.80
2018-07-21T14:12:13.738Z,5.70
2018-07-21T14:13:14.464Z,6.00
2018-07-21T14:14:37.452Z,5.90
2018-07-21T14:15:38.017Z,5.50
2018-07-21T14:16:38.298Z,5.70
2018-07-21T14:17:37.740Z,5.90
2018-07-21T14:18:38.636Z,5.60
2018-07-21T14:19:38.064Z,5.50
2018-07-21T14:20:38.043Z,5.30
2018-07-21T14:21:37.566Z,5.60
2018-07-21T14:22:38.570Z,6.10
2018-07-21T14:24:01.415Z,5.70
2018-07-21T14:25:01.863Z,6.10
2018-07-21T14:26:02.491Z,6.30
2018-07-21T14:27:01.747Z,6.10
2018-07-21T14:28:04.237Z,6.20
2018-07-21T14:29:00.667Z,6.40
2018-07-21T14:30:01.707Z,6.70
2018-07-21T14:31:02.931Z,6.20
2018-07-21T14:32:02.534Z,5.70
2018-07-21T14:33:03.183Z,6.40
2018-07-21T14:34:01.704Z,6.30
2018-07-21T14:35:25.272Z,6.60
2018-07-21T14:36:50.628Z,5.40
2018-07-21T14:37:51.064Z,6.50
2018-07-21T14:38:50.619Z,5.80
2018-07-21T14:39:51.078Z,6.00
2018-07-21T14:40:50.442Z,6.30
2018-07-21T14:41:51.914Z,6.50
2018-07-21T14:42:50.392Z,5.90
2018-07-21T14:43:51.013Z,6.40
2018-07-21T14:44:50.397Z,6.30
2018-07-21T14:45:50.968Z,6.10
2018-07-21T14:46:50.235Z,5.90
2018-07-21T14:47:50.792Z,6.30
2018-07-21T14:48:51.055Z,6.20
2018-07-21T14:49:50.583Z,6.40
2018-07-21T14:50:51.041Z,6.50
2018-07-21T14:51:50.306Z,6.50
2018-07-21T14:52:50.630Z,6.80
2018-07-21T14:53:50.887Z,8.80
2018-07-21T14:54:50.468Z,8.20
2018-07-21T14:55:50.978Z,7.00
2018-07-21T14:56:50.909Z,6.60
2018-07-21T14:57:50.430Z,6.80
2018-07-21T14:58:51.000Z,6.30
2018-07-21T14:59:50.451Z,6.20
2018-07-21T15:01:14.270Z,6.40
2018-07-21T15:02:13.340Z,6.50
2018-07-21T15:03:13.557Z,5.60
2018-07-21T15:04:15.068Z,5.70
2018-07-21T15:05:14.548Z,6.00
2018-07-21T15:06:15.115Z,5.50
2018-07-21T15:07:14.674Z,5.90
2018-07-21T15:08:15.196Z,6.20
2018-07-21T15:09:37.770Z,5.30
2018-07-21T15:10:38.321Z,5.60
2018-07-21T15:11:38.779Z,6.50
2018-07-21T15:12:38.390Z,6.30
2018-07-21T15:13:37.996Z,6.20
2018-07-21T15:14:38.519Z,5.80
2018-07-21T15:15:37.969Z,6.20
2018-07-21T15:16:38.502Z,6.00
2018-07-21T15:17:10.307Z,5.80
2018-07-21T15:18:08.875Z,5.50
2018-07-21T15:19:32.718Z,6.60
2018-07-21T15:20:56.384Z,7.20
2018-07-21T15:21:57.806Z,7.30
2018-07-21T15:22:57.252Z,7.40
2018-07-21T15:24:19.965Z,7.00
2018-07-21T15:25:20.614Z,5.60
2018-07-21T15:26:20.014Z,6.10